Terminal Aerodrome Forecast
Issued by NWS

Home | Current Version | Previous Version | Graphics & Text | Print | Product List | Glossary On
Versions: 1 2 3 4 5 6 7 8 9 10 11 12 13 14 15 16 17 18 19 20 21
000
FTUS43 KGRB 151700
TAFRHI
TAF
KRHI 151737Z 1518/1618 28011KT P6SM BKN040
      TEMPO 1518/1520 5SM -SN
     FM152200 27006KT P6SM SCT045 SCT200
     FM160400 12003KT P6SM BKN120
     FM160700 12004KT P6SM OVC080
     FM161100 12010KT P6SM -SN SCT025 OVC040
      TEMPO 1612/1614 3SM -SN BKN020
     FM161400 12015G25KT 1 1/2SM -SN SCT006 OVC015
      TEMPO 1614/1618 1/2SM SN BKN006=

USA.gov is the U.S. government's official web portal to all federal, state and local government web resources and services.